TRA99Z LOWI-EHRD
Flight info
| Callsign | TRA99Z |
|---|---|
| Flight time | 1h 17m |
| Altitude | 38000 |
| Route | ADILO Y703 MOGTI P66 KPT L608 TEDGO DCT LIRSU DCT SOGRI L608 BUB Y28 HELEN |
| Aircraft | B738/M-SDE2E3FGHIRWXY/LB1 |
Departure
| Time | 2026-04-30 19:08 |
|---|---|
| Airport | Innsbruck Airport (LOWI) |
Arrival
| Time | 2026-04-30 20:26 |
|---|---|
| Airport | Rotterdam The Hague Airport (EHRD) |
| Time | Latitude | Longitude | Altitude | Speed | Heading |
|---|---|---|---|---|---|
| 2026-04-30 18:36 | 47.25826 | 11.35048 | 1906 ft | 0 kts | 171° |
| 2026-04-30 19:00 | 47.25839 | 11.35023 | 1890 ft | 5 kts | 326° |
| 2026-04-30 19:00 | 47.25866 | 11.34960 | 1893 ft | 10 kts | 270° |
| 2026-04-30 19:00 | 47.25836 | 11.34662 | 1895 ft | 19 kts | 260° |
| 2026-04-30 19:01 | 47.25792 | 11.34250 | 1901 ft | 20 kts | 261° |
| 2026-04-30 19:01 | 47.25771 | 11.34052 | 1906 ft | 19 kts | 266° |
| 2026-04-30 19:02 | 47.25889 | 11.33721 | 1907 ft | 18 kts | 305° |
| 2026-04-30 19:02 | 47.25912 | 11.33385 | 1905 ft | 17 kts | 259° |
| 2026-04-30 19:03 | 47.25835 | 11.33095 | 1902 ft | 12 kts | 283° |
| 2026-04-30 19:03 | 47.25883 | 11.33130 | 1892 ft | 0 kts | 79° |
| 2026-04-30 19:08 | 47.25894 | 11.33222 | 1900 ft | 37 kts | 81° |
| 2026-04-30 19:08 | 47.26135 | 11.35429 | 1956 ft | 168 kts | 81° |
| 2026-04-30 19:08 | 47.26312 | 11.37097 | 2950 ft | 162 kts | 81° |
| 2026-04-30 19:09 | 47.26669 | 11.40497 | 4513 ft | 170 kts | 82° |
| 2026-04-30 19:09 | 47.26848 | 11.42206 | 5441 ft | 173 kts | 81° |
| 2026-04-30 19:09 | 47.27037 | 11.44004 | 6189 ft | 180 kts | 81° |
| 2026-04-30 19:10 | 47.27822 | 11.47506 | 7821 ft | 180 kts | 68° |
| 2026-04-30 19:10 | 47.28832 | 11.50933 | 9360 ft | 183 kts | 68° |
| 2026-04-30 19:11 | 47.29332 | 11.52660 | 10117 ft | 183 kts | 68° |
| 2026-04-30 19:11 | 47.30330 | 11.56155 | 11322 ft | 187 kts | 68° |
| 2026-04-30 19:11 | 47.30836 | 11.57937 | 11862 ft | 190 kts | 68° |
| 2026-04-30 19:12 | 47.31346 | 11.59736 | 12375 ft | 191 kts | 68° |
| 2026-04-30 19:12 | 47.31674 | 11.61627 | 12843 ft | 194 kts | 93° |
| 2026-04-30 19:12 | 47.31239 | 11.63511 | 13289 ft | 200 kts | 123° |
| 2026-04-30 19:13 | 47.28706 | 11.65042 | 14182 ft | 216 kts | 192° |
| 2026-04-30 19:13 | 47.26701 | 11.61992 | 14988 ft | 222 kts | 255° |
| 2026-04-30 19:13 | 47.26304 | 11.59789 | 15422 ft | 224 kts | 258° |
| 2026-04-30 19:14 | 47.25944 | 11.57533 | 15841 ft | 228 kts | 259° |
| 2026-04-30 19:14 | 47.25577 | 11.55245 | 16263 ft | 231 kts | 259° |
| 2026-04-30 19:14 | 47.25198 | 11.52940 | 16703 ft | 233 kts | 259° |
| 2026-04-30 19:14 | 47.24806 | 11.50611 | 17127 ft | 236 kts | 259° |
| 2026-04-30 19:15 | 47.24403 | 11.48256 | 17562 ft | 239 kts | 259° |
| 2026-04-30 19:15 | 47.23964 | 11.43474 | 18336 ft | 233 kts | 295° |
| 2026-04-30 19:15 | 47.24735 | 11.41378 | 18513 ft | 237 kts | 314° |
| 2026-04-30 19:16 | 47.25844 | 11.39491 | 18645 ft | 251 kts | 319° |
| 2026-04-30 19:16 | 47.27084 | 11.37559 | 18748 ft | 268 kts | 319° |
| 2026-04-30 19:16 | 47.29823 | 11.33325 | 18963 ft | 304 kts | 318° |
| 2026-04-30 19:17 | 47.31326 | 11.30979 | 19115 ft | 325 kts | 318° |
| 2026-04-30 19:17 | 47.34605 | 11.25803 | 19373 ft | 364 kts | 317° |
| 2026-04-30 19:17 | 47.36361 | 11.23006 | 19657 ft | 377 kts | 317° |
| 2026-04-30 19:18 | 47.39335 | 11.18232 | 20587 ft | 382 kts | 317° |
| 2026-04-30 19:18 | 47.41749 | 11.14347 | 21408 ft | 386 kts | 317° |
| 2026-04-30 19:18 | 47.43574 | 11.11407 | 21995 ft | 390 kts | 317° |
| 2026-04-30 19:19 | 47.45415 | 11.08441 | 22554 ft | 393 kts | 317° |
| 2026-04-30 19:19 | 47.47270 | 11.05448 | 23093 ft | 397 kts | 317° |
| 2026-04-30 19:19 | 47.51030 | 10.99375 | 24112 ft | 404 kts | 317° |
| 2026-04-30 19:20 | 47.52935 | 10.96295 | 24563 ft | 408 kts | 317° |
| 2026-04-30 19:20 | 47.54854 | 10.93188 | 25028 ft | 410 kts | 317° |
| 2026-04-30 19:20 | 47.58741 | 10.86882 | 25773 ft | 419 kts | 318° |
| 2026-04-30 19:21 | 47.60712 | 10.83681 | 26217 ft | 421 kts | 318° |
| 2026-04-30 19:21 | 47.64679 | 10.77221 | 27032 ft | 426 kts | 318° |
| 2026-04-30 19:22 | 47.68692 | 10.70670 | 27826 ft | 432 kts | 318° |
| 2026-04-30 19:22 | 47.74807 | 10.60660 | 28942 ft | 440 kts | 319° |
| 2026-04-30 19:23 | 47.81007 | 10.50474 | 29917 ft | 449 kts | 319° |
| 2026-04-30 19:24 | 47.85215 | 10.43533 | 30560 ft | 454 kts | 319° |
| 2026-04-30 19:24 | 47.87331 | 10.40037 | 30849 ft | 455 kts | 318° |
| 2026-04-30 19:24 | 47.91575 | 10.33007 | 31493 ft | 456 kts | 318° |
| 2026-04-30 19:25 | 47.97879 | 10.22527 | 32818 ft | 448 kts | 318° |
| 2026-04-30 19:26 | 48.02047 | 10.15585 | 33376 ft | 451 kts | 317° |
| 2026-04-30 19:26 | 48.06215 | 10.08624 | 34163 ft | 447 kts | 317° |
| 2026-04-30 19:26 | 48.08281 | 10.05163 | 34541 ft | 445 kts | 317° |
| 2026-04-30 19:27 | 48.12395 | 9.98265 | 35090 ft | 444 kts | 317° |
| 2026-04-30 19:27 | 48.16494 | 9.91373 | 35689 ft | 442 kts | 317° |
| 2026-04-30 19:28 | 48.18534 | 9.87936 | 35974 ft | 441 kts | 317° |
| 2026-04-30 19:28 | 48.22610 | 9.81057 | 36376 ft | 442 kts | 316° |
| 2026-04-30 19:29 | 48.26679 | 9.74169 | 36915 ft | 440 kts | 316° |
| 2026-04-30 19:29 | 48.28706 | 9.70731 | 37172 ft | 439 kts | 316° |
| 2026-04-30 19:30 | 48.34821 | 9.60542 | 37931 ft | 434 kts | 321° |
| 2026-04-30 19:30 | 48.39374 | 9.54655 | 38334 ft | 432 kts | 324° |
| 2026-04-30 19:31 | 48.44022 | 9.48853 | 38312 ft | 434 kts | 324° |
| 2026-04-30 19:31 | 48.50906 | 9.40033 | 38324 ft | 432 kts | 323° |
| 2026-04-30 19:32 | 48.55432 | 9.34168 | 38341 ft | 432 kts | 323° |
| 2026-04-30 19:32 | 48.59985 | 9.28262 | 38349 ft | 431 kts | 323° |
| 2026-04-30 19:33 | 48.64319 | 9.21965 | 38357 ft | 434 kts | 316° |
| 2026-04-30 19:33 | 48.68314 | 9.15084 | 38329 ft | 436 kts | 315° |
| 2026-04-30 19:34 | 48.72287 | 9.08145 | 38343 ft | 436 kts | 315° |
| 2026-04-30 19:35 | 48.78303 | 8.97766 | 38343 ft | 438 kts | 315° |
| 2026-04-30 19:35 | 48.82343 | 8.90829 | 38341 ft | 439 kts | 315° |
| 2026-04-30 19:36 | 48.85708 | 8.85042 | 38332 ft | 440 kts | 315° |
| 2026-04-30 19:36 | 48.91793 | 8.74543 | 38309 ft | 442 kts | 315° |
| 2026-04-30 19:37 | 48.95853 | 8.67511 | 38339 ft | 443 kts | 315° |
| 2026-04-30 19:37 | 48.99920 | 8.60448 | 38338 ft | 444 kts | 315° |
| 2026-04-30 19:38 | 49.03991 | 8.53359 | 38344 ft | 445 kts | 315° |
| 2026-04-30 19:38 | 49.08068 | 8.46243 | 38344 ft | 446 kts | 315° |
| 2026-04-30 19:39 | 49.12147 | 8.39102 | 38343 ft | 446 kts | 315° |
| 2026-04-30 19:39 | 49.16225 | 8.31942 | 38343 ft | 447 kts | 315° |
| 2026-04-30 19:40 | 49.20297 | 8.24774 | 38347 ft | 446 kts | 315° |
| 2026-04-30 19:40 | 49.24362 | 8.17599 | 38357 ft | 446 kts | 315° |
| 2026-04-30 19:41 | 49.28418 | 8.10420 | 38363 ft | 445 kts | 315° |
| 2026-04-30 19:41 | 49.32465 | 8.03239 | 38335 ft | 445 kts | 315° |
| 2026-04-30 19:42 | 49.36497 | 7.96063 | 38347 ft | 444 kts | 314° |
| 2026-04-30 19:42 | 49.40518 | 7.88886 | 38346 ft | 443 kts | 314° |
| 2026-04-30 19:43 | 49.44498 | 7.81764 | 38343 ft | 442 kts | 314° |
| 2026-04-30 19:44 | 49.50493 | 7.71002 | 38344 ft | 441 kts | 314° |
| 2026-04-30 19:44 | 49.54481 | 7.63816 | 38345 ft | 441 kts | 314° |
| 2026-04-30 19:45 | 49.58464 | 7.56621 | 38343 ft | 441 kts | 314° |
| 2026-04-30 19:45 | 49.62445 | 7.49409 | 38366 ft | 442 kts | 314° |
| 2026-04-30 19:46 | 49.66427 | 7.42176 | 38368 ft | 443 kts | 314° |
| 2026-04-30 19:46 | 49.70418 | 7.34905 | 38364 ft | 444 kts | 314° |
| 2026-04-30 19:47 | 49.74412 | 7.27610 | 38362 ft | 445 kts | 314° |
| 2026-04-30 19:47 | 49.78411 | 7.20285 | 38344 ft | 446 kts | 313° |
| 2026-04-30 19:48 | 49.82413 | 7.12933 | 38362 ft | 447 kts | 313° |
| 2026-04-30 19:48 | 49.86417 | 7.05555 | 38357 ft | 448 kts | 313° |
| 2026-04-30 19:49 | 49.90428 | 6.98145 | 38349 ft | 449 kts | 313° |
| 2026-04-30 19:49 | 49.96445 | 6.86989 | 38340 ft | 450 kts | 313° |
| 2026-04-30 19:50 | 50.00431 | 6.79571 | 38329 ft | 450 kts | 313° |
| 2026-04-30 19:50 | 50.04435 | 6.72099 | 38347 ft | 450 kts | 313° |
| 2026-04-30 19:51 | 50.08437 | 6.64609 | 38338 ft | 450 kts | 313° |
| 2026-04-30 19:51 | 50.12435 | 6.57106 | 38342 ft | 450 kts | 313° |
| 2026-04-30 19:52 | 50.16431 | 6.49586 | 38327 ft | 450 kts | 313° |
| 2026-04-30 19:52 | 50.20327 | 6.41948 | 38308 ft | 451 kts | 309° |
| 2026-04-30 19:53 | 50.23931 | 6.33938 | 38328 ft | 451 kts | 307° |
| 2026-04-30 19:53 | 50.27480 | 6.25870 | 38340 ft | 450 kts | 307° |
| 2026-04-30 19:54 | 50.29268 | 6.21828 | 37974 ft | 455 kts | 307° |
| 2026-04-30 19:54 | 50.31070 | 6.17773 | 37640 ft | 450 kts | 308° |
| 2026-04-30 19:54 | 50.32851 | 6.13770 | 37190 ft | 447 kts | 308° |
| 2026-04-30 19:54 | 50.34617 | 6.09804 | 36815 ft | 442 kts | 308° |
| 2026-04-30 19:55 | 50.36365 | 6.05875 | 36419 ft | 438 kts | 308° |
| 2026-04-30 19:55 | 50.38098 | 6.01977 | 36036 ft | 434 kts | 308° |
| 2026-04-30 19:55 | 50.39817 | 5.98107 | 35637 ft | 431 kts | 308° |
| 2026-04-30 19:55 | 50.41520 | 5.94266 | 35254 ft | 428 kts | 308° |
| 2026-04-30 19:56 | 50.43213 | 5.90443 | 34864 ft | 426 kts | 308° |
| 2026-04-30 19:56 | 50.44895 | 5.86637 | 34489 ft | 423 kts | 308° |
| 2026-04-30 19:56 | 50.46565 | 5.82852 | 34087 ft | 421 kts | 308° |
| 2026-04-30 19:56 | 50.48226 | 5.79082 | 33680 ft | 418 kts | 308° |
| 2026-04-30 19:57 | 50.49875 | 5.75336 | 33286 ft | 416 kts | 308° |
| 2026-04-30 19:57 | 50.51510 | 5.71613 | 32895 ft | 413 kts | 308° |
| 2026-04-30 19:57 | 50.53132 | 5.67915 | 32533 ft | 410 kts | 308° |
| 2026-04-30 19:57 | 50.54744 | 5.64237 | 32171 ft | 407 kts | 308° |
| 2026-04-30 19:58 | 50.56344 | 5.60579 | 31813 ft | 404 kts | 308° |
| 2026-04-30 19:58 | 50.57930 | 5.56949 | 31447 ft | 402 kts | 307° |
| 2026-04-30 19:58 | 50.59508 | 5.53332 | 31105 ft | 400 kts | 307° |
| 2026-04-30 19:58 | 50.61075 | 5.49735 | 30748 ft | 398 kts | 307° |
| 2026-04-30 19:59 | 50.62635 | 5.46151 | 30397 ft | 396 kts | 307° |
| 2026-04-30 19:59 | 50.64185 | 5.42583 | 29995 ft | 394 kts | 307° |
| 2026-04-30 19:59 | 50.67248 | 5.35518 | 29232 ft | 387 kts | 307° |
| 2026-04-30 20:00 | 50.68760 | 5.32024 | 28865 ft | 384 kts | 307° |
| 2026-04-30 20:00 | 50.70257 | 5.28559 | 28500 ft | 381 kts | 307° |
| 2026-04-30 20:00 | 50.71743 | 5.25117 | 28142 ft | 378 kts | 307° |
| 2026-04-30 20:00 | 50.73217 | 5.21697 | 27788 ft | 375 kts | 307° |
| 2026-04-30 20:01 | 50.76131 | 5.14925 | 27079 ft | 370 kts | 307° |
| 2026-04-30 20:01 | 50.77573 | 5.11568 | 26738 ft | 368 kts | 307° |
| 2026-04-30 20:01 | 50.79004 | 5.08231 | 26402 ft | 366 kts | 306° |
| 2026-04-30 20:02 | 50.81336 | 5.01172 | 25557 ft | 370 kts | 289° |
| 2026-04-30 20:02 | 50.82085 | 4.97276 | 25175 ft | 370 kts | 288° |
| 2026-04-30 20:03 | 50.83510 | 4.89478 | 24439 ft | 368 kts | 288° |
| 2026-04-30 20:03 | 50.84226 | 4.85598 | 24094 ft | 367 kts | 288° |
| 2026-04-30 20:03 | 50.84947 | 4.81739 | 23725 ft | 365 kts | 288° |
| 2026-04-30 20:03 | 50.85670 | 4.77896 | 23330 ft | 364 kts | 288° |
| 2026-04-30 20:04 | 50.86391 | 4.74074 | 22966 ft | 361 kts | 288° |
| 2026-04-30 20:04 | 50.87108 | 4.70276 | 22610 ft | 359 kts | 288° |
| 2026-04-30 20:04 | 50.87818 | 4.66508 | 22257 ft | 356 kts | 288° |
| 2026-04-30 20:05 | 50.89222 | 4.59036 | 21595 ft | 352 kts | 287° |
| 2026-04-30 20:05 | 50.89923 | 4.55332 | 21260 ft | 350 kts | 289° |
| 2026-04-30 20:05 | 50.92133 | 4.48559 | 20525 ft | 346 kts | 303° |
| 2026-04-30 20:06 | 50.93411 | 4.45338 | 20162 ft | 345 kts | 304° |
| 2026-04-30 20:06 | 50.94687 | 4.42128 | 19841 ft | 343 kts | 304° |
| 2026-04-30 20:06 | 50.95953 | 4.38920 | 19506 ft | 342 kts | 303° |
| 2026-04-30 20:06 | 50.97206 | 4.35717 | 19166 ft | 342 kts | 303° |
| 2026-04-30 20:07 | 50.98452 | 4.32513 | 18825 ft | 341 kts | 303° |
| 2026-04-30 20:07 | 50.99676 | 4.29353 | 18459 ft | 340 kts | 303° |
| 2026-04-30 20:07 | 51.02138 | 4.22968 | 17753 ft | 338 kts | 303° |
| 2026-04-30 20:08 | 51.03359 | 4.19792 | 17411 ft | 336 kts | 303° |
| 2026-04-30 20:08 | 51.04572 | 4.16633 | 17084 ft | 334 kts | 303° |
| 2026-04-30 20:08 | 51.05776 | 4.13496 | 16749 ft | 332 kts | 303° |
| 2026-04-30 20:08 | 51.06974 | 4.10370 | 16435 ft | 330 kts | 303° |
| 2026-04-30 20:09 | 51.08167 | 4.07255 | 16105 ft | 329 kts | 303° |
| 2026-04-30 20:09 | 51.09386 | 4.04192 | 15775 ft | 326 kts | 309° |
| 2026-04-30 20:09 | 51.12771 | 3.99604 | 15132 ft | 319 kts | 327° |
| 2026-04-30 20:10 | 51.16353 | 3.95476 | 14478 ft | 317 kts | 327° |
| 2026-04-30 20:10 | 51.18127 | 3.93392 | 14163 ft | 316 kts | 327° |
| 2026-04-30 20:10 | 51.19890 | 3.91302 | 13826 ft | 316 kts | 327° |
| 2026-04-30 20:11 | 51.23489 | 3.87420 | 13134 ft | 307 kts | 345° |
| 2026-04-30 20:11 | 51.25547 | 3.86837 | 12851 ft | 297 kts | 2° |
| 2026-04-30 20:11 | 51.27601 | 3.86775 | 12549 ft | 294 kts | 4° |
| 2026-04-30 20:12 | 51.31674 | 3.86759 | 11950 ft | 292 kts | 4° |
| 2026-04-30 20:12 | 51.33702 | 3.86732 | 11647 ft | 291 kts | 4° |
| 2026-04-30 20:12 | 51.35722 | 3.86691 | 11352 ft | 290 kts | 4° |
| 2026-04-30 20:13 | 51.37732 | 3.86643 | 11058 ft | 288 kts | 4° |
| 2026-04-30 20:13 | 51.39737 | 3.86593 | 10774 ft | 287 kts | 4° |
| 2026-04-30 20:13 | 51.41691 | 3.86892 | 10458 ft | 278 kts | 25° |
| 2026-04-30 20:13 | 51.43339 | 3.88326 | 10329 ft | 264 kts | 39° |
| 2026-04-30 20:14 | 51.44840 | 3.90024 | 10016 ft | 263 kts | 41° |
| 2026-04-30 20:14 | 51.46290 | 3.91731 | 9744 ft | 262 kts | 41° |
| 2026-04-30 20:14 | 51.47752 | 3.93459 | 9473 ft | 260 kts | 41° |
| 2026-04-30 20:14 | 51.49230 | 3.95199 | 9179 ft | 259 kts | 41° |
| 2026-04-30 20:15 | 51.50659 | 3.96876 | 8924 ft | 258 kts | 41° |
| 2026-04-30 20:15 | 51.52122 | 3.98588 | 8645 ft | 256 kts | 41° |
| 2026-04-30 20:15 | 51.53536 | 4.00240 | 8393 ft | 254 kts | 41° |
| 2026-04-30 20:15 | 51.54962 | 4.01905 | 8125 ft | 253 kts | 41° |
| 2026-04-30 20:16 | 51.56403 | 4.03585 | 7873 ft | 252 kts | 41° |
| 2026-04-30 20:16 | 51.57817 | 4.05237 | 7615 ft | 251 kts | 41° |
| 2026-04-30 20:16 | 51.59212 | 4.06866 | 7345 ft | 251 kts | 41° |
| 2026-04-30 20:16 | 51.60643 | 4.08537 | 7082 ft | 250 kts | 41° |
| 2026-04-30 20:17 | 51.62033 | 4.10163 | 6813 ft | 251 kts | 41° |
| 2026-04-30 20:17 | 51.63444 | 4.11810 | 6532 ft | 250 kts | 41° |
| 2026-04-30 20:17 | 51.64854 | 4.13455 | 6255 ft | 250 kts | 41° |
| 2026-04-30 20:17 | 51.66264 | 4.15108 | 5972 ft | 250 kts | 41° |
| 2026-04-30 20:18 | 51.67666 | 4.16752 | 5690 ft | 249 kts | 41° |
| 2026-04-30 20:18 | 51.69067 | 4.18394 | 5432 ft | 248 kts | 41° |
| 2026-04-30 20:18 | 51.70445 | 4.20009 | 5316 ft | 242 kts | 42° |
| 2026-04-30 20:18 | 51.71787 | 4.21582 | 5192 ft | 235 kts | 42° |
| 2026-04-30 20:19 | 51.73109 | 4.23080 | 5073 ft | 231 kts | 35° |
| 2026-04-30 20:19 | 51.74121 | 4.23645 | 4966 ft | 238 kts | 12° |
| 2026-04-30 20:19 | 51.76306 | 4.22859 | 4726 ft | 245 kts | 341° |
| 2026-04-30 20:19 | 51.77851 | 4.21707 | 4495 ft | 244 kts | 340° |
| 2026-04-30 20:20 | 51.79369 | 4.20534 | 4348 ft | 239 kts | 340° |
| 2026-04-30 20:20 | 51.80899 | 4.19849 | 4143 ft | 219 kts | 13° |
| 2026-04-30 20:20 | 51.82345 | 4.20185 | 3984 ft | 207 kts | 16° |
| 2026-04-30 20:20 | 51.83761 | 4.20476 | 3774 ft | 203 kts | 16° |
| 2026-04-30 20:21 | 51.85157 | 4.20748 | 3392 ft | 206 kts | 17° |
| 2026-04-30 20:21 | 51.86547 | 4.21229 | 3026 ft | 197 kts | 35° |
| 2026-04-30 20:21 | 51.87529 | 4.22593 | 2678 ft | 181 kts | 64° |
| 2026-04-30 20:21 | 51.88050 | 4.24380 | 2446 ft | 172 kts | 71° |
| 2026-04-30 20:22 | 51.88621 | 4.26036 | 2322 ft | 166 kts | 67° |
| 2026-04-30 20:22 | 51.89218 | 4.27634 | 2104 ft | 166 kts | 65° |
| 2026-04-30 20:22 | 51.89838 | 4.29176 | 1961 ft | 159 kts | 64° |
| 2026-04-30 20:22 | 51.90404 | 4.30632 | 1815 ft | 146 kts | 65° |
| 2026-04-30 20:23 | 51.90919 | 4.31982 | 1711 ft | 141 kts | 65° |
| 2026-04-30 20:23 | 51.91473 | 4.33333 | 1502 ft | 144 kts | 63° |
| 2026-04-30 20:23 | 51.92003 | 4.34599 | 1297 ft | 130 kts | 65° |
| 2026-04-30 20:23 | 51.92472 | 4.35827 | 1068 ft | 128 kts | 66° |
| 2026-04-30 20:24 | 51.92925 | 4.37083 | 871 ft | 131 kts | 62° |
| 2026-04-30 20:24 | 51.93431 | 4.38326 | 712 ft | 132 kts | 61° |
| 2026-04-30 20:24 | 51.93952 | 4.39632 | 547 ft | 140 kts | 62° |
| 2026-04-30 20:24 | 51.94288 | 4.40512 | 415 ft | 137 kts | 62° |
| 2026-04-30 20:25 | 51.95290 | 4.43020 | 45 ft | 136 kts | 62° |
| 2026-04-30 20:25 | 51.95777 | 4.44255 | -1 ft | 114 kts | 56° |
| 2026-04-30 20:26 | 51.96165 | 4.45234 | 1 ft | 9 kts | 86° |
| 2026-04-30 20:26 | 51.96092 | 4.45390 | 0 ft | 9 kts | 156° |
| 2026-04-30 20:26 | 51.96037 | 4.45372 | 1 ft | 9 kts | 220° |
| 2026-04-30 20:27 | 51.95969 | 4.45217 | 0 ft | 8 kts | 238° |
| 2026-04-30 20:27 | 51.95899 | 4.45039 | 0 ft | 12 kts | 237° |
| 2026-04-30 20:28 | 51.95778 | 4.44737 | 0 ft | 20 kts | 237° |
| 2026-04-30 20:28 | 51.95605 | 4.44306 | 0 ft | 26 kts | 237° |
| 2026-04-30 20:29 | 51.95414 | 4.43827 | 0 ft | 24 kts | 237° |
| 2026-04-30 20:30 | 51.95212 | 4.43543 | 0 ft | 10 kts | 149° |
| 2026-04-30 20:30 | 51.95061 | 4.43499 | 0 ft | 9 kts | 236° |
| 2026-04-30 20:31 | 51.95054 | 4.43387 | 0 ft | 3 kts | 324° |
| 2026-04-30 20:32 | 51.95070 | 4.43369 | 0 ft | 0 kts | 326° |